sensor_id;sensor_type;location;lat;lon;timestamp;P1;durP1;ratioP1;P2;durP2;ratioP2
55575;SDS011;41437;45.478;9.116;2023-03-31T00:02:43;13.32;;;3.10;;
55575;SDS011;41437;45.478;9.116;2023-03-31T00:05:45;9.00;;;3.10;;
55575;SDS011;41437;45.478;9.116;2023-03-31T00:08:47;11.23;;;3.25;;
55575;SDS011;41437;45.478;9.116;2023-03-31T00:11:50;10.23;;;3.00;;
55575;SDS011;41437;45.478;9.116;2023-03-31T00:14:54;8.32;;;2.92;;
55575;SDS011;41437;45.478;9.116;2023-03-31T00:17:55;7.35;;;2.90;;
55575;SDS011;41437;45.478;9.116;2023-03-31T00:21:04;10.18;;;3.08;;
55575;SDS011;41437;45.478;9.116;2023-03-31T00:24:08;11.32;;;3.30;;
55575;SDS011;41437;45.478;9.116;2023-03-31T00:27:11;9.13;;;3.00;;
55575;SDS011;41437;45.478;9.116;2023-03-31T00:30:14;8.48;;;3.00;;
55575;SDS011;41437;45.478;9.116;2023-03-31T00:33:15;7.87;;;2.70;;
55575;SDS011;41437;45.478;9.116;2023-03-31T00:36:17;10.85;;;2.78;;
55575;SDS011;41437;45.478;9.116;2023-03-31T00:39:26;9.63;;;2.78;;
55575;SDS011;41437;45.478;9.116;2023-03-31T00:42:30;7.80;;;2.80;;
55575;SDS011;41437;45.478;9.116;2023-03-31T00:45:33;9.55;;;2.97;;
55575;SDS011;41437;45.478;9.116;2023-03-31T00:48:35;8.75;;;2.97;;
55575;SDS011;41437;45.478;9.116;2023-03-31T00:51:38;12.82;;;3.25;;
55575;SDS011;41437;45.478;9.116;2023-03-31T00:54:40;9.77;;;3.20;;
55575;SDS011;41437;45.478;9.116;2023-03-31T00:57:43;7.97;;;3.00;;
55575;SDS011;41437;45.478;9.116;2023-03-31T01:00:48;9.02;;;2.60;;
55575;SDS011;41437;45.478;9.116;2023-03-31T01:03:51;7.68;;;2.75;;
55575;SDS011;41437;45.478;9.116;2023-03-31T01:06:55;10.55;;;2.95;;
55575;SDS011;41437;45.478;9.116;2023-03-31T01:10:02;10.38;;;3.20;;
55575;SDS011;41437;45.478;9.116;2023-03-31T01:13:04;8.30;;;2.92;;
55575;SDS011;41437;45.478;9.116;2023-03-31T01:16:07;6.38;;;2.65;;
55575;SDS011;41437;45.478;9.116;2023-03-31T01:19:11;9.27;;;3.03;;
55575;SDS011;41437;45.478;9.116;2023-03-31T01:22:28;8.55;;;2.90;;
55575;SDS011;41437;45.478;9.116;2023-03-31T01:29:50;12.45;;;3.33;;
55575;SDS011;41437;45.478;9.116;2023-03-31T01:33:17;8.83;;;2.90;;
55575;SDS011;41437;45.478;9.116;2023-03-31T01:36:45;10.00;;;3.00;;
55575;SDS011;41437;45.478;9.116;2023-03-31T01:40:15;9.80;;;2.80;;
55575;SDS011;41437;45.478;9.116;2023-03-31T01:43:25;9.40;;;2.72;;
55575;SDS011;41437;45.478;9.116;2023-03-31T01:46:34;8.95;;;3.03;;
55575;SDS011;41437;45.478;9.116;2023-03-31T01:49:38;9.95;;;2.90;;
55575;SDS011;41437;45.478;9.116;2023-03-31T01:52:46;10.57;;;3.20;;
55575;SDS011;41437;45.478;9.116;2023-03-31T01:55:59;8.65;;;3.03;;
55575;SDS011;41437;45.478;9.116;2023-03-31T01:59:06;11.35;;;3.08;;
55575;SDS011;41437;45.478;9.116;2023-03-31T02:02:13;7.57;;;2.78;;
55575;SDS011;41437;45.478;9.116;2023-03-31T02:05:20;6.68;;;2.60;;
55575;SDS011;41437;45.478;9.116;2023-03-31T02:08:25;9.20;;;2.65;;
55575;SDS011;41437;45.478;9.116;2023-03-31T02:11:32;8.25;;;2.30;;
55575;SDS011;41437;45.478;9.116;2023-03-31T02:14:34;8.45;;;2.40;;
55575;SDS011;41437;45.478;9.116;2023-03-31T02:17:40;9.27;;;2.58;;
55575;SDS011;41437;45.478;9.116;2023-03-31T02:20:45;6.85;;;2.25;;
55575;SDS011;41437;45.478;9.116;2023-03-31T02:23:50;8.88;;;2.33;;
55575;SDS011;41437;45.478;9.116;2023-03-31T02:27:00;11.27;;;2.67;;
55575;SDS011;41437;45.478;9.116;2023-03-31T02:30:06;6.38;;;2.38;;
55575;SDS011;41437;45.478;9.116;2023-03-31T02:33:09;8.85;;;2.38;;
55575;SDS011;41437;45.478;9.116;2023-03-31T02:36:11;8.52;;;2.58;;
55575;SDS011;41437;45.478;9.116;2023-03-31T02:39:13;11.13;;;2.78;;
55575;SDS011;41437;45.478;9.116;2023-03-31T02:42:19;8.35;;;2.90;;
55575;SDS011;41437;45.478;9.116;2023-03-31T02:45:42;9.05;;;2.40;;
55575;SDS011;41437;45.478;9.116;2023-03-31T02:48:45;11.32;;;2.22;;
55575;SDS011;41437;45.478;9.116;2023-03-31T02:51:56;8.55;;;2.45;;
55575;SDS011;41437;45.478;9.116;2023-03-31T02:55:31;7.82;;;2.40;;
55575;SDS011;41437;45.478;9.116;2023-03-31T03:02:23;8.38;;;1.90;;
55575;SDS011;41437;45.478;9.116;2023-03-31T03:05:40;6.90;;;2.30;;
55575;SDS011;41437;45.478;9.116;2023-03-31T03:09:00;6.90;;;2.22;;
55575;SDS011;41437;45.478;9.116;2023-03-31T03:12:10;9.27;;;2.70;;
55575;SDS011;41437;45.478;9.116;2023-03-31T03:15:19;8.98;;;2.42;;
55575;SDS011;41437;45.478;9.116;2023-03-31T03:18:25;8.32;;;2.25;;
55575;SDS011;41437;45.478;9.116;2023-03-31T03:21:27;8.25;;;2.53;;
55575;SDS011;41437;45.478;9.116;2023-03-31T03:24:29;8.02;;;2.20;;
55575;SDS011;41437;45.478;9.116;2023-03-31T03:27:33;6.22;;;2.10;;
55575;SDS011;41437;45.478;9.116;2023-03-31T03:30:36;9.63;;;2.30;;
55575;SDS011;41437;45.478;9.116;2023-03-31T03:33:38;9.98;;;2.15;;
55575;SDS011;41437;45.478;9.116;2023-03-31T03:36:39;9.75;;;2.10;;
55575;SDS011;41437;45.478;9.116;2023-03-31T03:39:41;8.43;;;2.20;;
55575;SDS011;41437;45.478;9.116;2023-03-31T03:42:42;7.10;;;2.05;;
55575;SDS011;41437;45.478;9.116;2023-03-31T03:45:47;6.68;;;2.05;;
55575;SDS011;41437;45.478;9.116;2023-03-31T03:48:49;10.32;;;2.40;;
55575;SDS011;41437;45.478;9.116;2023-03-31T03:51:50;8.80;;;2.28;;
55575;SDS011;41437;45.478;9.116;2023-03-31T03:54:52;10.50;;;2.50;;
55575;SDS011;41437;45.478;9.116;2023-03-31T03:57:53;7.18;;;2.35;;
55575;SDS011;41437;45.478;9.116;2023-03-31T04:00:56;11.93;;;2.50;;
55575;SDS011;41437;45.478;9.116;2023-03-31T04:03:57;8.73;;;2.80;;
55575;SDS011;41437;45.478;9.116;2023-03-31T04:06:59;7.85;;;2.33;;
55575;SDS011;41437;45.478;9.116;2023-03-31T04:10:01;8.80;;;2.40;;
55575;SDS011;41437;45.478;9.116;2023-03-31T04:13:02;8.48;;;2.50;;
55575;SDS011;41437;45.478;9.116;2023-03-31T04:16:05;8.95;;;2.30;;
55575;SDS011;41437;45.478;9.116;2023-03-31T04:19:07;6.45;;;2.47;;
55575;SDS011;41437;45.478;9.116;2023-03-31T04:22:11;9.38;;;2.70;;
55575;SDS011;41437;45.478;9.116;2023-03-31T04:25:14;9.10;;;2.70;;
55575;SDS011;41437;45.478;9.116;2023-03-31T04:28:16;6.03;;;2.30;;
55575;SDS011;41437;45.478;9.116;2023-03-31T04:31:20;9.20;;;2.72;;
55575;SDS011;41437;45.478;9.116;2023-03-31T04:34:24;8.82;;;2.40;;
55575;SDS011;41437;45.478;9.116;2023-03-31T04:37:33;10.32;;;2.50;;
55575;SDS011;41437;45.478;9.116;2023-03-31T04:43:40;6.70;;;2.53;;
55575;SDS011;41437;45.478;9.116;2023-03-31T04:46:43;8.45;;;2.50;;
55575;SDS011;41437;45.478;9.116;2023-03-31T04:49:45;7.25;;;2.40;;
55575;SDS011;41437;45.478;9.116;2023-03-31T04:52:46;11.68;;;2.35;;
55575;SDS011;41437;45.478;9.116;2023-03-31T04:55:48;10.93;;;2.40;;
55575;SDS011;41437;45.478;9.116;2023-03-31T04:58:50;6.80;;;2.40;;
55575;SDS011;41437;45.478;9.116;2023-03-31T05:01:53;10.77;;;2.40;;
55575;SDS011;41437;45.478;9.116;2023-03-31T05:04:54;12.10;;;3.70;;
55575;SDS011;41437;45.478;9.116;2023-03-31T05:07:56;7.75;;;2.58;;
55575;SDS011;41437;45.478;9.116;2023-03-31T05:10:58;9.68;;;2.58;;
55575;SDS011;41437;45.478;9.116;2023-03-31T05:13:59;7.75;;;2.30;;
55575;SDS011;41437;45.478;9.116;2023-03-31T05:17:02;8.63;;;2.70;;
55575;SDS011;41437;45.478;9.116;2023-03-31T05:20:04;9.80;;;2.83;;
55575;SDS011;41437;45.478;9.116;2023-03-31T05:23:07;8.77;;;2.78;;
55575;SDS011;41437;45.478;9.116;2023-03-31T05:26:09;6.47;;;2.42;;
55575;SDS011;41437;45.478;9.116;2023-03-31T05:29:10;9.18;;;2.60;;
55575;SDS011;41437;45.478;9.116;2023-03-31T05:32:13;9.88;;;2.80;;
55575;SDS011;41437;45.478;9.116;2023-03-31T05:35:15;8.57;;;2.65;;
55575;SDS011;41437;45.478;9.116;2023-03-31T05:38:17;7.28;;;2.60;;
55575;SDS011;41437;45.478;9.116;2023-03-31T05:41:18;7.57;;;2.50;;
55575;SDS011;41437;45.478;9.116;2023-03-31T05:44:20;10.77;;;3.00;;
55575;SDS011;41437;45.478;9.116;2023-03-31T05:47:23;8.82;;;2.45;;
55575;SDS011;41437;45.478;9.116;2023-03-31T05:50:24;12.13;;;3.03;;
55575;SDS011;41437;45.478;9.116;2023-03-31T05:53:26;8.73;;;2.90;;
55575;SDS011;41437;45.478;9.116;2023-03-31T05:56:28;8.48;;;2.75;;
55575;SDS011;41437;45.478;9.116;2023-03-31T05:59:29;7.82;;;2.60;;
55575;SDS011;41437;45.478;9.116;2023-03-31T06:02:32;9.45;;;2.55;;
55575;SDS011;41437;45.478;9.116;2023-03-31T06:05:34;8.18;;;2.72;;
55575;SDS011;41437;45.478;9.116;2023-03-31T06:08:36;10.68;;;3.15;;
55575;SDS011;41437;45.478;9.116;2023-03-31T06:11:37;13.90;;;3.30;;
55575;SDS011;41437;45.478;9.116;2023-03-31T06:14:39;12.15;;;3.00;;
55575;SDS011;41437;45.478;9.116;2023-03-31T06:17:42;9.07;;;2.70;;
55575;SDS011;41437;45.478;9.116;2023-03-31T06:20:44;9.13;;;2.87;;
55575;SDS011;41437;45.478;9.116;2023-03-31T06:23:45;8.48;;;2.90;;
55575;SDS011;41437;45.478;9.116;2023-03-31T06:26:47;7.10;;;2.60;;
55575;SDS011;41437;45.478;9.116;2023-03-31T06:29:48;10.43;;;2.63;;
55575;SDS011;41437;45.478;9.116;2023-03-31T06:32:51;9.02;;;2.50;;
55575;SDS011;41437;45.478;9.116;2023-03-31T06:35:54;8.77;;;2.95;;
55575;SDS011;41437;45.478;9.116;2023-03-31T06:38:56;9.90;;;3.10;;
55575;SDS011;41437;45.478;9.116;2023-03-31T06:41:57;10.98;;;3.05;;
55575;SDS011;41437;45.478;9.116;2023-03-31T06:44:59;7.10;;;2.80;;
55575;SDS011;41437;45.478;9.116;2023-03-31T06:48:02;11.68;;;2.72;;
55575;SDS011;41437;45.478;9.116;2023-03-31T06:51:04;10.65;;;2.90;;
55575;SDS011;41437;45.478;9.116;2023-03-31T06:54:06;7.70;;;2.35;;
55575;SDS011;41437;45.478;9.116;2023-03-31T06:57:08;10.95;;;3.22;;
55575;SDS011;41437;45.478;9.116;2023-03-31T07:00:10;10.95;;;3.33;;
55575;SDS011;41437;45.478;9.116;2023-03-31T07:03:13;9.82;;;2.28;;
55575;SDS011;41437;45.478;9.116;2023-03-31T07:06:17;9.38;;;2.30;;
55575;SDS011;41437;45.478;9.116;2023-03-31T07:09:19;9.43;;;2.60;;
55575;SDS011;41437;45.478;9.116;2023-03-31T07:12:22;10.57;;;2.30;;
55575;SDS011;41437;45.478;9.116;2023-03-31T07:15:24;8.70;;;2.40;;
55575;SDS011;41437;45.478;9.116;2023-03-31T07:18:28;9.63;;;2.35;;
55575;SDS011;41437;45.478;9.116;2023-03-31T07:21:33;8.85;;;2.70;;
55575;SDS011;41437;45.478;9.116;2023-03-31T07:24:35;6.90;;;2.17;;
55575;SDS011;41437;45.478;9.116;2023-03-31T07:27:36;6.30;;;2.38;;
55575;SDS011;41437;45.478;9.116;2023-03-31T07:30:38;9.48;;;2.80;;
55575;SDS011;41437;45.478;9.116;2023-03-31T07:33:42;10.60;;;3.20;;
55575;SDS011;41437;45.478;9.116;2023-03-31T07:36:43;9.95;;;3.05;;
55575;SDS011;41437;45.478;9.116;2023-03-31T07:39:45;9.65;;;3.00;;
55575;SDS011;41437;45.478;9.116;2023-03-31T07:42:46;13.55;;;3.03;;
55575;SDS011;41437;45.478;9.116;2023-03-31T07:45:50;10.05;;;2.70;;
55575;SDS011;41437;45.478;9.116;2023-03-31T07:48:54;11.80;;;3.25;;
55575;SDS011;41437;45.478;9.116;2023-03-31T07:51:57;10.80;;;2.83;;
55575;SDS011;41437;45.478;9.116;2023-03-31T07:54:58;11.02;;;3.13;;
55575;SDS011;41437;45.478;9.116;2023-03-31T07:58:00;9.55;;;3.08;;
55575;SDS011;41437;45.478;9.116;2023-03-31T08:01:01;11.73;;;3.38;;
55575;SDS011;41437;45.478;9.116;2023-03-31T08:04:05;11.43;;;2.90;;
55575;SDS011;41437;45.478;9.116;2023-03-31T08:07:06;11.32;;;3.17;;
55575;SDS011;41437;45.478;9.116;2023-03-31T08:10:09;13.25;;;3.65;;
55575;SDS011;41437;45.478;9.116;2023-03-31T08:13:13;8.80;;;2.90;;
55575;SDS011;41437;45.478;9.116;2023-03-31T08:16:15;14.38;;;3.33;;
55575;SDS011;41437;45.478;9.116;2023-03-31T08:19:18;12.40;;;3.55;;
55575;SDS011;41437;45.478;9.116;2023-03-31T08:22:19;14.38;;;4.05;;
55575;SDS011;41437;45.478;9.116;2023-03-31T08:25:22;17.25;;;3.75;;
55575;SDS011;41437;45.478;9.116;2023-03-31T08:28:26;17.05;;;4.45;;
55575;SDS011;41437;45.478;9.116;2023-03-31T08:31:27;15.45;;;3.80;;
55575;SDS011;41437;45.478;9.116;2023-03-31T08:34:30;16.25;;;3.90;;
55575;SDS011;41437;45.478;9.116;2023-03-31T08:37:31;24.93;;;4.30;;
55575;SDS011;41437;45.478;9.116;2023-03-31T08:40:33;31.77;;;4.80;;
55575;SDS011;41437;45.478;9.116;2023-03-31T08:43:36;14.88;;;3.55;;
55575;SDS011;41437;45.478;9.116;2023-03-31T08:46:40;12.38;;;3.42;;
55575;SDS011;41437;45.478;9.116;2023-03-31T08:49:46;17.40;;;4.30;;
55575;SDS011;41437;45.478;9.116;2023-03-31T08:53:02;12.75;;;3.63;;
55575;SDS011;41437;45.478;9.116;2023-03-31T08:56:06;11.30;;;3.95;;
55575;SDS011;41437;45.478;9.116;2023-03-31T08:59:16;13.27;;;3.45;;
55575;SDS011;41437;45.478;9.116;2023-03-31T09:02:28;13.35;;;2.92;;
55575;SDS011;41437;45.478;9.116;2023-03-31T09:05:47;10.85;;;3.08;;
55575;SDS011;41437;45.478;9.116;2023-03-31T09:08:54;9.57;;;3.08;;
55575;SDS011;41437;45.478;9.116;2023-03-31T09:12:01;11.70;;;3.60;;
55575;SDS011;41437;45.478;9.116;2023-03-31T09:15:09;11.05;;;3.20;;
55575;SDS011;41437;45.478;9.116;2023-03-31T09:18:13;20.02;;;4.50;;
55575;SDS011;41437;45.478;9.116;2023-03-31T09:21:21;13.00;;;3.10;;
55575;SDS011;41437;45.478;9.116;2023-03-31T09:24:29;10.30;;;2.72;;
55575;SDS011;41437;45.478;9.116;2023-03-31T09:27:34;11.02;;;3.08;;
55575;SDS011;41437;45.478;9.116;2023-03-31T09:30:36;10.10;;;2.90;;
55575;SDS011;41437;45.478;9.116;2023-03-31T09:33:39;39.30;;;5.85;;
55575;SDS011;41437;45.478;9.116;2023-03-31T09:36:46;12.88;;;3.60;;
55575;SDS011;41437;45.478;9.116;2023-03-31T09:39:47;10.43;;;3.10;;
55575;SDS011;41437;45.478;9.116;2023-03-31T09:42:50;32.70;;;4.82;;
55575;SDS011;41437;45.478;9.116;2023-03-31T09:45:56;11.65;;;3.30;;
55575;SDS011;41437;45.478;9.116;2023-03-31T09:48:58;14.98;;;3.20;;
55575;SDS011;41437;45.478;9.116;2023-03-31T09:55:31;12.43;;;3.20;;
55575;SDS011;41437;45.478;9.116;2023-03-31T09:58:42;19.73;;;4.18;;
55575;SDS011;41437;45.478;9.116;2023-03-31T10:01:45;11.15;;;2.97;;
55575;SDS011;41437;45.478;9.116;2023-03-31T10:04:49;13.65;;;2.97;;
55575;SDS011;41437;45.478;9.116;2023-03-31T10:07:52;18.65;;;3.80;;
55575;SDS011;41437;45.478;9.116;2023-03-31T10:11:14;15.13;;;2.97;;
55575;SDS011;41437;45.478;9.116;2023-03-31T10:14:16;11.93;;;3.42;;
55575;SDS011;41437;45.478;9.116;2023-03-31T10:17:18;12.63;;;3.33;;
55575;SDS011;41437;45.478;9.116;2023-03-31T10:20:26;11.40;;;3.33;;
55575;SDS011;41437;45.478;9.116;2023-03-31T10:23:34;10.63;;;3.35;;
55575;SDS011;41437;45.478;9.116;2023-03-31T10:29:37;12.07;;;3.40;;
55575;SDS011;41437;45.478;9.116;2023-03-31T10:32:39;10.38;;;3.33;;
55575;SDS011;41437;45.478;9.116;2023-03-31T10:35:42;8.80;;;3.70;;
55575;SDS011;41437;45.478;9.116;2023-03-31T10:38:46;11.57;;;4.10;;
55575;SDS011;41437;45.478;9.116;2023-03-31T10:41:49;14.20;;;4.30;;
55575;SDS011;41437;45.478;9.116;2023-03-31T10:44:53;13.75;;;4.00;;
55575;SDS011;41437;45.478;9.116;2023-03-31T10:48:16;12.27;;;4.43;;
55575;SDS011;41437;45.478;9.116;2023-03-31T10:51:20;10.65;;;3.70;;
55575;SDS011;41437;45.478;9.116;2023-03-31T10:54:27;14.20;;;4.07;;
55575;SDS011;41437;45.478;9.116;2023-03-31T10:57:39;8.87;;;3.77;;
55575;SDS011;41437;45.478;9.116;2023-03-31T11:00:56;9.82;;;3.60;;
55575;SDS011;41437;45.478;9.116;2023-03-31T11:04:11;12.35;;;3.78;;
55575;SDS011;41437;45.478;9.116;2023-03-31T11:07:32;13.15;;;4.28;;
55575;SDS011;41437;45.478;9.116;2023-03-31T11:10:52;11.90;;;4.38;;
55575;SDS011;41437;45.478;9.116;2023-03-31T11:14:05;11.88;;;3.65;;
55575;SDS011;41437;45.478;9.116;2023-03-31T11:17:16;12.02;;;4.18;;
55575;SDS011;41437;45.478;9.116;2023-03-31T11:20:29;9.10;;;4.32;;
55575;SDS011;41437;45.478;9.116;2023-03-31T11:23:39;11.18;;;4.70;;
55575;SDS011;41437;45.478;9.116;2023-03-31T11:26:45;15.10;;;4.90;;
55575;SDS011;41437;45.478;9.116;2023-03-31T11:29:55;13.57;;;4.50;;
55575;SDS011;41437;45.478;9.116;2023-03-31T11:33:14;13.02;;;4.07;;
55575;SDS011;41437;45.478;9.116;2023-03-31T11:36:38;15.35;;;4.50;;
55575;SDS011;41437;45.478;9.116;2023-03-31T11:39:56;12.40;;;4.38;;
55575;SDS011;41437;45.478;9.116;2023-03-31T11:43:12;15.35;;;5.00;;
55575;SDS011;41437;45.478;9.116;2023-03-31T11:46:22;14.23;;;4.32;;
55575;SDS011;41437;45.478;9.116;2023-03-31T11:49:28;13.13;;;4.22;;
55575;SDS011;41437;45.478;9.116;2023-03-31T11:52:38;13.30;;;4.30;;
55575;SDS011;41437;45.478;9.116;2023-03-31T11:55:44;16.10;;;4.32;;
55575;SDS011;41437;45.478;9.116;2023-03-31T11:58:51;11.30;;;4.60;;
55575;SDS011;41437;45.478;9.116;2023-03-31T12:01:56;10.93;;;4.50;;
55575;SDS011;41437;45.478;9.116;2023-03-31T12:05:05;13.77;;;4.72;;
55575;SDS011;41437;45.478;9.116;2023-03-31T12:08:11;13.07;;;4.22;;
55575;SDS011;41437;45.478;9.116;2023-03-31T12:11:18;12.75;;;4.78;;
55575;SDS011;41437;45.478;9.116;2023-03-31T12:14:28;15.80;;;5.00;;
55575;SDS011;41437;45.478;9.116;2023-03-31T12:17:33;16.02;;;5.38;;
55575;SDS011;41437;45.478;9.116;2023-03-31T12:20:38;14.43;;;4.88;;
55575;SDS011;41437;45.478;9.116;2023-03-31T12:23:42;12.32;;;4.60;;
55575;SDS011;41437;45.478;9.116;2023-03-31T12:26:48;10.20;;;4.30;;
55575;SDS011;41437;45.478;9.116;2023-03-31T12:29:59;10.90;;;5.00;;
55575;SDS011;41437;45.478;9.116;2023-03-31T12:33:03;15.30;;;4.75;;
55575;SDS011;41437;45.478;9.116;2023-03-31T12:36:13;11.70;;;4.40;;
55575;SDS011;41437;45.478;9.116;2023-03-31T12:39:29;13.48;;;4.53;;
55575;SDS011;41437;45.478;9.116;2023-03-31T12:42:43;11.90;;;4.70;;
55575;SDS011;41437;45.478;9.116;2023-03-31T12:45:56;15.63;;;4.70;;
55575;SDS011;41437;45.478;9.116;2023-03-31T12:49:15;14.23;;;5.05;;
55575;SDS011;41437;45.478;9.116;2023-03-31T12:52:31;13.57;;;4.63;;
55575;SDS011;41437;45.478;9.116;2023-03-31T12:55:41;16.38;;;4.80;;
55575;SDS011;41437;45.478;9.116;2023-03-31T12:58:46;13.55;;;4.47;;
55575;SDS011;41437;45.478;9.116;2023-03-31T13:05:44;13.23;;;4.68;;
55575;SDS011;41437;45.478;9.116;2023-03-31T13:08:49;18.63;;;4.73;;
55575;SDS011;41437;45.478;9.116;2023-03-31T13:11:53;12.85;;;4.32;;
55575;SDS011;41437;45.478;9.116;2023-03-31T13:14:55;14.70;;;5.00;;
55575;SDS011;41437;45.478;9.116;2023-03-31T13:21:03;13.00;;;4.18;;
55575;SDS011;41437;45.478;9.116;2023-03-31T13:24:08;12.35;;;3.90;;
55575;SDS011;41437;45.478;9.116;2023-03-31T13:27:23;17.40;;;4.60;;
55575;SDS011;41437;45.478;9.116;2023-03-31T13:30:46;13.95;;;4.40;;
55575;SDS011;41437;45.478;9.116;2023-03-31T13:33:52;14.85;;;4.40;;
55575;SDS011;41437;45.478;9.116;2023-03-31T13:36:59;9.85;;;4.15;;
55575;SDS011;41437;45.478;9.116;2023-03-31T13:40:21;16.55;;;4.35;;
55575;SDS011;41437;45.478;9.116;2023-03-31T13:43:59;13.68;;;4.82;;
55575;SDS011;41437;45.478;9.116;2023-03-31T13:50:52;16.55;;;4.53;;
55575;SDS011;41437;45.478;9.116;2023-03-31T13:54:28;11.85;;;4.60;;
55575;SDS011;41437;45.478;9.116;2023-03-31T13:57:49;12.40;;;4.70;;
55575;SDS011;41437;45.478;9.116;2023-03-31T14:01:16;13.55;;;4.97;;
55575;SDS011;41437;45.478;9.116;2023-03-31T14:04:39;12.05;;;4.82;;
55575;SDS011;41437;45.478;9.116;2023-03-31T14:08:10;15.73;;;4.80;;
55575;SDS011;41437;45.478;9.116;2023-03-31T14:11:15;14.25;;;5.43;;
55575;SDS011;41437;45.478;9.116;2023-03-31T14:14:18;13.10;;;4.88;;
55575;SDS011;41437;45.478;9.116;2023-03-31T14:17:21;13.75;;;4.93;;
55575;SDS011;41437;45.478;9.116;2023-03-31T14:20:28;10.07;;;5.00;;
55575;SDS011;41437;45.478;9.116;2023-03-31T14:23:41;12.88;;;4.93;;
55575;SDS011;41437;45.478;9.116;2023-03-31T14:26:56;17.30;;;5.95;;
55575;SDS011;41437;45.478;9.116;2023-03-31T14:30:04;12.20;;;5.05;;
55575;SDS011;41437;45.478;9.116;2023-03-31T14:33:18;16.17;;;5.30;;
55575;SDS011;41437;45.478;9.116;2023-03-31T14:36:29;13.68;;;5.40;;
55575;SDS011;41437;45.478;9.116;2023-03-31T14:39:42;15.57;;;5.00;;
55575;SDS011;41437;45.478;9.116;2023-03-31T14:42:46;12.48;;;5.03;;
55575;SDS011;41437;45.478;9.116;2023-03-31T14:45:56;17.55;;;5.47;;
55575;SDS011;41437;45.478;9.116;2023-03-31T14:49:04;20.65;;;5.45;;
55575;SDS011;41437;45.478;9.116;2023-03-31T14:52:12;14.88;;;5.50;;
55575;SDS011;41437;45.478;9.116;2023-03-31T14:55:20;16.95;;;5.25;;
55575;SDS011;41437;45.478;9.116;2023-03-31T14:58:23;13.93;;;4.72;;
55575;SDS011;41437;45.478;9.116;2023-03-31T15:01:29;13.75;;;5.00;;
55575;SDS011;41437;45.478;9.116;2023-03-31T15:04:36;15.48;;;5.68;;
55575;SDS011;41437;45.478;9.116;2023-03-31T15:07:43;21.88;;;5.53;;
55575;SDS011;41437;45.478;9.116;2023-03-31T15:10:48;15.20;;;4.90;;
55575;SDS011;41437;45.478;9.116;2023-03-31T15:13:52;15.48;;;5.40;;
55575;SDS011;41437;45.478;9.116;2023-03-31T15:16:55;13.50;;;5.47;;
55575;SDS011;41437;45.478;9.116;2023-03-31T15:19:59;15.18;;;5.22;;
55575;SDS011;41437;45.478;9.116;2023-03-31T15:23:17;17.30;;;6.07;;
55575;SDS011;41437;45.478;9.116;2023-03-31T15:26:25;13.43;;;5.40;;
55575;SDS011;41437;45.478;9.116;2023-03-31T15:29:31;14.60;;;5.72;;
55575;SDS011;41437;45.478;9.116;2023-03-31T15:32:38;17.10;;;6.10;;
55575;SDS011;41437;45.478;9.116;2023-03-31T15:35:40;15.75;;;5.57;;
55575;SDS011;41437;45.478;9.116;2023-03-31T15:38:42;15.98;;;5.80;;
55575;SDS011;41437;45.478;9.116;2023-03-31T15:41:47;12.57;;;5.97;;
55575;SDS011;41437;45.478;9.116;2023-03-31T15:44:52;13.85;;;5.60;;
55575;SDS011;41437;45.478;9.116;2023-03-31T15:47:56;12.93;;;5.53;;
55575;SDS011;41437;45.478;9.116;2023-03-31T15:51:04;15.27;;;5.97;;
55575;SDS011;41437;45.478;9.116;2023-03-31T15:54:13;15.23;;;6.15;;
55575;SDS011;41437;45.478;9.116;2023-03-31T15:57:33;17.85;;;6.70;;
55575;SDS011;41437;45.478;9.116;2023-03-31T16:00:42;18.05;;;7.07;;
55575;SDS011;41437;45.478;9.116;2023-03-31T16:03:46;22.52;;;8.55;;
55575;SDS011;41437;45.478;9.116;2023-03-31T16:06:48;16.80;;;8.90;;
55575;SDS011;41437;45.478;9.116;2023-03-31T16:09:55;23.63;;;10.20;;
55575;SDS011;41437;45.478;9.116;2023-03-31T16:13:03;19.63;;;9.23;;
55575;SDS011;41437;45.478;9.116;2023-03-31T16:16:07;21.15;;;9.38;;
55575;SDS011;41437;45.478;9.116;2023-03-31T16:19:12;21.80;;;9.93;;
55575;SDS011;41437;45.478;9.116;2023-03-31T16:22:14;17.77;;;9.63;;
55575;SDS011;41437;45.478;9.116;2023-03-31T16:25:20;19.48;;;9.00;;
55575;SDS011;41437;45.478;9.116;2023-03-31T16:28:25;23.33;;;9.65;;
55575;SDS011;41437;45.478;9.116;2023-03-31T16:31:30;18.27;;;8.35;;
55575;SDS011;41437;45.478;9.116;2023-03-31T16:34:50;19.00;;;8.40;;
55575;SDS011;41437;45.478;9.116;2023-03-31T16:37:52;18.17;;;8.50;;
55575;SDS011;41437;45.478;9.116;2023-03-31T16:40:55;15.23;;;7.70;;
55575;SDS011;41437;45.478;9.116;2023-03-31T16:43:59;18.58;;;8.05;;
55575;SDS011;41437;45.478;9.116;2023-03-31T16:47:00;16.40;;;7.35;;
55575;SDS011;41437;45.478;9.116;2023-03-31T16:50:02;19.02;;;7.53;;
55575;SDS011;41437;45.478;9.116;2023-03-31T16:56:08;17.83;;;7.95;;
55575;SDS011;41437;45.478;9.116;2023-03-31T16:59:12;15.27;;;7.87;;
55575;SDS011;41437;45.478;9.116;2023-03-31T17:02:13;16.58;;;7.57;;
55575;SDS011;41437;45.478;9.116;2023-03-31T17:05:15;19.92;;;8.32;;
55575;SDS011;41437;45.478;9.116;2023-03-31T17:08:17;18.33;;;7.18;;
55575;SDS011;41437;45.478;9.116;2023-03-31T17:11:20;17.00;;;7.53;;
55575;SDS011;41437;45.478;9.116;2023-03-31T17:14:24;16.33;;;7.43;;
55575;SDS011;41437;45.478;9.116;2023-03-31T17:17:27;17.33;;;7.95;;
55575;SDS011;41437;45.478;9.116;2023-03-31T17:20:29;19.42;;;8.38;;
55575;SDS011;41437;45.478;9.116;2023-03-31T17:23:31;15.88;;;7.20;;
55575;SDS011;41437;45.478;9.116;2023-03-31T17:26:33;17.98;;;8.13;;
55575;SDS011;41437;45.478;9.116;2023-03-31T17:29:38;17.10;;;8.15;;
55575;SDS011;41437;45.478;9.116;2023-03-31T17:32:39;15.67;;;8.17;;
55575;SDS011;41437;45.478;9.116;2023-03-31T17:35:41;15.82;;;7.85;;
55575;SDS011;41437;45.478;9.116;2023-03-31T17:38:43;19.00;;;8.63;;
55575;SDS011;41437;45.478;9.116;2023-03-31T17:41:45;16.08;;;8.02;;
55575;SDS011;41437;45.478;9.116;2023-03-31T17:44:47;18.30;;;7.82;;
55575;SDS011;41437;45.478;9.116;2023-03-31T17:47:50;17.92;;;8.55;;
55575;SDS011;41437;45.478;9.116;2023-03-31T17:50:52;18.67;;;8.77;;
55575;SDS011;41437;45.478;9.116;2023-03-31T17:53:53;14.07;;;7.50;;
55575;SDS011;41437;45.478;9.116;2023-03-31T17:56:55;17.40;;;8.52;;
55575;SDS011;41437;45.478;9.116;2023-03-31T17:59:58;14.15;;;7.30;;
55575;SDS011;41437;45.478;9.116;2023-03-31T18:02:59;21.17;;;8.40;;
55575;SDS011;41437;45.478;9.116;2023-03-31T18:06:01;19.48;;;9.00;;
55575;SDS011;41437;45.478;9.116;2023-03-31T18:09:05;17.13;;;9.60;;
55575;SDS011;41437;45.478;9.116;2023-03-31T18:12:08;18.13;;;9.77;;
55575;SDS011;41437;45.478;9.116;2023-03-31T18:15:11;17.92;;;9.82;;
55575;SDS011;41437;45.478;9.116;2023-03-31T18:18:12;16.90;;;9.70;;
55575;SDS011;41437;45.478;9.116;2023-03-31T18:21:14;21.70;;;9.48;;
55575;SDS011;41437;45.478;9.116;2023-03-31T18:24:16;17.67;;;9.63;;
55575;SDS011;41437;45.478;9.116;2023-03-31T18:27:19;19.33;;;10.15;;
55575;SDS011;41437;45.478;9.116;2023-03-31T18:30:22;14.00;;;9.20;;
55575;SDS011;41437;45.478;9.116;2023-03-31T18:33:25;18.50;;;9.18;;
55575;SDS011;41437;45.478;9.116;2023-03-31T18:36:27;20.15;;;9.90;;
55575;SDS011;41437;45.478;9.116;2023-03-31T18:39:29;14.93;;;9.00;;
55575;SDS011;41437;45.478;9.116;2023-03-31T18:42:31;15.32;;;10.10;;
55575;SDS011;41437;45.478;9.116;2023-03-31T18:45:36;16.00;;;9.55;;
55575;SDS011;41437;45.478;9.116;2023-03-31T18:48:38;17.48;;;10.52;;
55575;SDS011;41437;45.478;9.116;2023-03-31T18:51:41;16.58;;;10.52;;
55575;SDS011;41437;45.478;9.116;2023-03-31T18:54:42;17.42;;;10.93;;
55575;SDS011;41437;45.478;9.116;2023-03-31T18:57:44;18.73;;;10.52;;
55575;SDS011;41437;45.478;9.116;2023-03-31T19:00:47;17.15;;;10.13;;